sensor_id;sensor_type;location;lat;lon;timestamp;pressure;altitude;pressure_sealevel;temperature;humidity
10460;BME280;54412;51.206;6.888;2022-10-16T00:01:21;100461.47;;;14.98;88.73
10460;BME280;54412;51.206;6.888;2022-10-16T00:03:48;100463.69;;;15.04;88.23
10460;BME280;54412;51.206;6.888;2022-10-16T00:06:17;100458.06;;;14.96;88.49
10460;BME280;54412;51.206;6.888;2022-10-16T00:08:44;100458.06;;;14.96;88.58
10460;BME280;54412;51.206;6.888;2022-10-16T00:11:15;100470.09;;;15.02;88.10
10460;BME280;54412;51.206;6.888;2022-10-16T00:13:45;100476.03;;;14.93;88.02
10460;BME280;54412;51.206;6.888;2022-10-16T00:16:13;100467.97;;;14.94;87.67
10460;BME280;54412;51.206;6.888;2022-10-16T00:18:40;100474.31;;;14.92;87.81
10460;BME280;54412;51.206;6.888;2022-10-16T00:21:20;100480.50;;;14.92;87.65
10460;BME280;54412;51.206;6.888;2022-10-16T00:23:46;100485.78;;;15.05;86.29
10460;BME280;54412;51.206;6.888;2022-10-16T00:26:15;100487.28;;;14.96;86.21
10460;BME280;54412;51.206;6.888;2022-10-16T00:28:41;100490.69;;;14.98;86.64
10460;BME280;54412;51.206;6.888;2022-10-16T00:31:10;100483.34;;;15.02;86.23
10460;BME280;54412;51.206;6.888;2022-10-16T00:33:38;100476.97;;;14.79;87.14
10460;BME280;54412;51.206;6.888;2022-10-16T00:36:05;100482.38;;;15.03;85.84
10460;BME280;54412;51.206;6.888;2022-10-16T00:38:32;100483.66;;;14.97;85.92
10460;BME280;54412;51.206;6.888;2022-10-16T00:40:58;100474.16;;;15.18;84.60
10460;BME280;54412;51.206;6.888;2022-10-16T00:43:46;100477.06;;;15.03;84.80
10460;BME280;54412;51.206;6.888;2022-10-16T00:46:32;100478.16;;;15.00;84.96
10460;BME280;54412;51.206;6.888;2022-10-16T00:49:12;100478.16;;;15.00;85.96
10460;BME280;54412;51.206;6.888;2022-10-16T00:51:43;100478.59;;;14.82;86.30
10460;BME280;54412;51.206;6.888;2022-10-16T00:54:26;100469.75;;;14.94;86.28
10460;BME280;54412;51.206;6.888;2022-10-16T00:56:54;100463.06;;;14.76;87.45
10460;BME280;54412;51.206;6.888;2022-10-16T00:59:29;100460.53;;;14.74;86.91
10460;BME280;54412;51.206;6.888;2022-10-16T01:01:57;100459.38;;;14.65;87.87
10460;BME280;54412;51.206;6.888;2022-10-16T01:04:25;100468.28;;;14.77;86.95
10460;BME280;54412;51.206;6.888;2022-10-16T01:09:40;100472.13;;;14.73;86.16
10460;BME280;54412;51.206;6.888;2022-10-16T01:12:19;100480.28;;;14.70;86.50
10460;BME280;54412;51.206;6.888;2022-10-16T01:15:01;100479.97;;;14.62;86.47
10460;BME280;54412;51.206;6.888;2022-10-16T01:17:48;100484.44;;;14.61;86.05
10460;BME280;54412;51.206;6.888;2022-10-16T01:20:33;100491.63;;;14.47;87.23
10460;BME280;54412;51.206;6.888;2022-10-16T01:32:11;100485.16;;;14.51;86.40
10460;BME280;54412;51.206;6.888;2022-10-16T01:34:58;100481.34;;;14.55;86.48
10460;BME280;54412;51.206;6.888;2022-10-16T01:37:59;100480.59;;;14.40;87.02
10460;BME280;54412;51.206;6.888;2022-10-16T01:40:29;100478.75;;;14.41;88.05
10460;BME280;54412;51.206;6.888;2022-10-16T01:43:22;100478.97;;;14.38;88.11
10460;BME280;54412;51.206;6.888;2022-10-16T01:45:52;100483.44;;;14.50;87.67
10460;BME280;54412;51.206;6.888;2022-10-16T01:48:20;100472.31;;;14.45;87.80
10460;BME280;54412;51.206;6.888;2022-10-16T01:51:20;100480.09;;;14.60;86.92
10460;BME280;54412;51.206;6.888;2022-10-16T01:53:52;100491.53;;;14.61;87.07
10460;BME280;54412;51.206;6.888;2022-10-16T01:56:20;100490.38;;;14.52;87.63
10460;BME280;54412;51.206;6.888;2022-10-16T01:58:55;100487.72;;;14.52;87.77
10460;BME280;54412;51.206;6.888;2022-10-16T02:01:27;100496.84;;;14.74;86.95
10460;BME280;54412;51.206;6.888;2022-10-16T02:03:58;100490.69;;;14.73;86.55
10460;BME280;54412;51.206;6.888;2022-10-16T02:06:27;100487.94;;;15.00;85.24
10460;BME280;54412;51.206;6.888;2022-10-16T02:08:53;100483.97;;;15.18;84.11
10460;BME280;54412;51.206;6.888;2022-10-16T02:11:19;100489.44;;;14.91;85.31
10460;BME280;54412;51.206;6.888;2022-10-16T02:13:55;100487.91;;;15.12;84.46
10460;BME280;54412;51.206;6.888;2022-10-16T02:16:44;100493.78;;;14.80;85.79
10460;BME280;54412;51.206;6.888;2022-10-16T02:19:13;100491.72;;;15.08;84.67
10460;BME280;54412;51.206;6.888;2022-10-16T02:24:43;100495.03;;;14.87;85.42
10460;BME280;54412;51.206;6.888;2022-10-16T02:27:34;100501.31;;;14.98;85.03
10460;BME280;54412;51.206;6.888;2022-10-16T02:30:33;100500.69;;;15.07;84.39
10460;BME280;54412;51.206;6.888;2022-10-16T02:33:04;100494.19;;;14.86;86.04
10460;BME280;54412;51.206;6.888;2022-10-16T02:35:32;100503.75;;;14.89;86.13
10460;BME280;54412;51.206;6.888;2022-10-16T02:37:58;100501.94;;;15.02;84.88
10460;BME280;54412;51.206;6.888;2022-10-16T02:40:25;100506.72;;;14.97;85.78
10460;BME280;54412;51.206;6.888;2022-10-16T02:42:54;100504.81;;;14.86;85.81
10460;BME280;54412;51.206;6.888;2022-10-16T02:45:20;100508.41;;;15.10;84.66
10460;BME280;54412;51.206;6.888;2022-10-16T02:47:46;100510.84;;;15.01;84.87
10460;BME280;54412;51.206;6.888;2022-10-16T02:50:13;100505.78;;;14.98;85.02
10460;BME280;54412;51.206;6.888;2022-10-16T02:52:38;100496.19;;;14.83;86.23
10460;BME280;54412;51.206;6.888;2022-10-16T02:55:05;100489.84;;;14.98;85.22
10460;BME280;54412;51.206;6.888;2022-10-16T02:57:30;100499.19;;;14.91;85.39
10460;BME280;54412;51.206;6.888;2022-10-16T02:59:57;100506.50;;;15.00;84.36
10460;BME280;54412;51.206;6.888;2022-10-16T03:02:23;100513.63;;;14.87;85.97
10460;BME280;54412;51.206;6.888;2022-10-16T03:04:49;100507.03;;;14.80;86.24
10460;BME280;54412;51.206;6.888;2022-10-16T03:07:15;100511.59;;;15.03;84.90
10460;BME280;54412;51.206;6.888;2022-10-16T03:09:41;100523.72;;;14.94;84.82
10460;BME280;54412;51.206;6.888;2022-10-16T03:12:06;100513.00;;;14.96;84.68
10460;BME280;54412;51.206;6.888;2022-10-16T03:14:33;100502.72;;;14.91;85.19
10460;BME280;54412;51.206;6.888;2022-10-16T03:16:58;100498.31;;;15.15;83.02
10460;BME280;54412;51.206;6.888;2022-10-16T03:19:24;100503.63;;;15.15;83.18
10460;BME280;54412;51.206;6.888;2022-10-16T03:21:50;100502.44;;;15.19;82.76
10460;BME280;54412;51.206;6.888;2022-10-16T03:24:15;100501.09;;;15.01;83.18
10460;BME280;54412;51.206;6.888;2022-10-16T03:26:41;100491.44;;;14.88;84.15
10460;BME280;54412;51.206;6.888;2022-10-16T03:29:07;100496.41;;;15.05;83.40
10460;BME280;54412;51.206;6.888;2022-10-16T03:31:33;100504.38;;;14.92;83.84
10460;BME280;54412;51.206;6.888;2022-10-16T03:33:59;100509.47;;;15.08;82.98
10460;BME280;54412;51.206;6.888;2022-10-16T03:36:24;100507.25;;;15.14;82.51
10460;BME280;54412;51.206;6.888;2022-10-16T03:38:50;100514.03;;;15.06;82.70
10460;BME280;54412;51.206;6.888;2022-10-16T03:41:16;100503.97;;;14.86;83.61
10460;BME280;54412;51.206;6.888;2022-10-16T03:43:42;100507.56;;;14.85;83.80
10460;BME280;54412;51.206;6.888;2022-10-16T03:46:07;100509.94;;;14.77;84.18
10460;BME280;54412;51.206;6.888;2022-10-16T03:48:33;100515.22;;;14.77;84.24
10460;BME280;54412;51.206;6.888;2022-10-16T03:50:59;100504.81;;;14.86;82.63
10460;BME280;54412;51.206;6.888;2022-10-16T03:53:25;100509.19;;;14.75;83.48
10460;BME280;54412;51.206;6.888;2022-10-16T03:55:51;100512.13;;;14.83;83.27
10460;BME280;54412;51.206;6.888;2022-10-16T03:58:16;100512.59;;;14.89;82.64
10460;BME280;54412;51.206;6.888;2022-10-16T04:00:44;100525.84;;;14.77;83.17
10460;BME280;54412;51.206;6.888;2022-10-16T04:03:11;100522.00;;;14.81;82.87
10460;BME280;54412;51.206;6.888;2022-10-16T04:05:37;100528.06;;;14.83;82.74
10460;BME280;54412;51.206;6.888;2022-10-16T04:08:03;100529.66;;;14.85;81.86
10460;BME280;54412;51.206;6.888;2022-10-16T04:10:29;100527.13;;;14.71;82.89
10460;BME280;54412;51.206;6.888;2022-10-16T04:12:55;100527.22;;;14.70;82.13
10460;BME280;54412;51.206;6.888;2022-10-16T04:15:22;100531.28;;;14.88;81.13
10460;BME280;54412;51.206;6.888;2022-10-16T04:17:48;100541.88;;;14.75;82.14
10460;BME280;54412;51.206;6.888;2022-10-16T04:20:14;100544.97;;;14.69;82.05
10460;BME280;54412;51.206;6.888;2022-10-16T04:22:40;100538.69;;;14.83;81.26
10460;BME280;54412;51.206;6.888;2022-10-16T04:25:06;100543.88;;;14.72;81.63
10460;BME280;54412;51.206;6.888;2022-10-16T04:27:32;100553.56;;;14.73;81.69
10460;BME280;54412;51.206;6.888;2022-10-16T04:29:59;100566.09;;;14.71;81.37
10460;BME280;54412;51.206;6.888;2022-10-16T04:32:26;100572.13;;;14.60;81.62
10460;BME280;54412;51.206;6.888;2022-10-16T04:34:52;100564.94;;;14.75;81.38
10460;BME280;54412;51.206;6.888;2022-10-16T04:37:18;100575.41;;;14.63;82.03
10460;BME280;54412;51.206;6.888;2022-10-16T04:39:44;100564.16;;;14.60;82.31
10460;BME280;54412;51.206;6.888;2022-10-16T04:42:10;100556.44;;;14.70;81.57
10460;BME280;54412;51.206;6.888;2022-10-16T04:44:36;100557.16;;;14.72;81.51
10460;BME280;54412;51.206;6.888;2022-10-16T04:47:02;100551.03;;;14.84;80.56
10460;BME280;54412;51.206;6.888;2022-10-16T04:49:28;100545.06;;;14.68;81.24
10460;BME280;54412;51.206;6.888;2022-10-16T04:51:54;100556.31;;;14.58;81.73
10460;BME280;54412;51.206;6.888;2022-10-16T04:54:19;100559.72;;;14.73;81.05
10460;BME280;54412;51.206;6.888;2022-10-16T04:56:45;100569.47;;;14.60;81.53
10460;BME280;54412;51.206;6.888;2022-10-16T04:59:17;100579.88;;;14.63;81.40
10460;BME280;54412;51.206;6.888;2022-10-16T05:01:43;100585.78;;;14.54;82.38
10460;BME280;54412;51.206;6.888;2022-10-16T05:04:10;100587.31;;;14.71;81.69
10460;BME280;54412;51.206;6.888;2022-10-16T05:06:36;100579.03;;;14.75;81.09
10460;BME280;54412;51.206;6.888;2022-10-16T05:09:04;100575.69;;;14.86;80.83
10460;BME280;54412;51.206;6.888;2022-10-16T05:11:31;100590.63;;;14.74;80.98
10460;BME280;54412;51.206;6.888;2022-10-16T05:13:57;100600.94;;;14.39;83.09
10460;BME280;54412;51.206;6.888;2022-10-16T05:16:22;100594.50;;;14.56;82.35
10460;BME280;54412;51.206;6.888;2022-10-16T05:18:48;100597.59;;;14.62;82.21
10460;BME280;54412;51.206;6.888;2022-10-16T05:21:14;100598.06;;;14.69;81.33
10460;BME280;54412;51.206;6.888;2022-10-16T05:23:40;100606.41;;;14.63;81.84
10460;BME280;54412;51.206;6.888;2022-10-16T05:26:05;100615.00;;;14.54;82.03
10460;BME280;54412;51.206;6.888;2022-10-16T05:28:31;100621.25;;;14.53;82.42
10460;BME280;54412;51.206;6.888;2022-10-16T05:30:57;100622.34;;;14.63;82.09
10460;BME280;54412;51.206;6.888;2022-10-16T05:33:25;100616.19;;;14.62;81.89
10460;BME280;54412;51.206;6.888;2022-10-16T05:35:51;100597.59;;;14.62;81.91
10460;BME280;54412;51.206;6.888;2022-10-16T05:38:18;100610.53;;;14.54;82.30
10460;BME280;54412;51.206;6.888;2022-10-16T05:40:50;100610.28;;;14.45;83.01
10460;BME280;54412;51.206;6.888;2022-10-16T05:43:16;100616.78;;;14.53;82.84
10460;BME280;54412;51.206;6.888;2022-10-16T05:45:41;100616.78;;;14.53;82.57
10460;BME280;54412;51.206;6.888;2022-10-16T05:48:07;100632.28;;;14.47;82.58
10460;BME280;54412;51.206;6.888;2022-10-16T05:50:33;100632.00;;;14.51;82.63
10460;BME280;54412;51.206;6.888;2022-10-16T05:52:58;100637.84;;;14.56;82.36
10460;BME280;54412;51.206;6.888;2022-10-16T05:55:24;100635.81;;;14.60;82.53
10460;BME280;54412;51.206;6.888;2022-10-16T05:57:50;100641.56;;;14.66;82.42
10460;BME280;54412;51.206;6.888;2022-10-16T06:00:15;100640.09;;;14.75;81.59
10460;BME280;54412;51.206;6.888;2022-10-16T06:02:41;100643.22;;;14.82;82.00
10460;BME280;54412;51.206;6.888;2022-10-16T06:05:07;100660.59;;;14.60;82.31
10460;BME280;54412;51.206;6.888;2022-10-16T06:07:35;100656.56;;;14.68;82.55
10460;BME280;54412;51.206;6.888;2022-10-16T06:10:02;100661.56;;;14.72;82.37
10460;BME280;54412;51.206;6.888;2022-10-16T06:12:29;100660.16;;;14.66;82.64
10460;BME280;54412;51.206;6.888;2022-10-16T06:14:55;100668.06;;;14.93;81.21
10460;BME280;54412;51.206;6.888;2022-10-16T06:17:20;100670.69;;;15.07;80.75
10460;BME280;54412;51.206;6.888;2022-10-16T06:19:46;100674.56;;;14.89;81.31
10460;BME280;54412;51.206;6.888;2022-10-16T06:22:12;100667.00;;;14.83;81.87
10460;BME280;54412;51.206;6.888;2022-10-16T06:24:37;100678.38;;;14.85;81.43
10460;BME280;54412;51.206;6.888;2022-10-16T06:27:04;100673.78;;;14.75;81.83
10460;BME280;54412;51.206;6.888;2022-10-16T06:29:30;100683.06;;;14.94;81.33
10460;BME280;54412;51.206;6.888;2022-10-16T06:31:55;100680.03;;;15.13;80.66
10460;BME280;54412;51.206;6.888;2022-10-16T06:34:21;100671.72;;;15.05;80.57
10460;BME280;54412;51.206;6.888;2022-10-16T06:36:47;100673.19;;;14.84;81.83
10460;BME280;54412;51.206;6.888;2022-10-16T06:39:12;100674.50;;;15.03;81.24
10460;BME280;54412;51.206;6.888;2022-10-16T06:41:38;100684.13;;;14.92;81.95
10460;BME280;54412;51.206;6.888;2022-10-16T06:44:07;100690.00;;;15.09;81.45
10460;BME280;54412;51.206;6.888;2022-10-16T06:46:33;100706.75;;;14.97;81.53
10460;BME280;54412;51.206;6.888;2022-10-16T06:48:59;100706.72;;;14.85;82.16
10460;BME280;54412;51.206;6.888;2022-10-16T06:51:25;100709.56;;;15.08;81.27
10460;BME280;54412;51.206;6.888;2022-10-16T06:53:54;100720.38;;;14.93;81.97
10460;BME280;54412;51.206;6.888;2022-10-16T06:56:27;100728.66;;;15.01;81.58
10460;BME280;54412;51.206;6.888;2022-10-16T06:58:53;100724.16;;;15.28;80.20
10460;BME280;54412;51.206;6.888;2022-10-16T07:01:22;100718.06;;;15.13;81.33
10460;BME280;54412;51.206;6.888;2022-10-16T07:03:48;100724.34;;;15.12;81.30
10460;BME280;54412;51.206;6.888;2022-10-16T07:06:18;100732.41;;;15.11;81.86
10460;BME280;54412;51.206;6.888;2022-10-16T07:08:46;100745.41;;;15.28;81.13
10460;BME280;54412;51.206;6.888;2022-10-16T07:11:17;100742.50;;;15.18;81.80
10460;BME280;54412;51.206;6.888;2022-10-16T07:13:44;100746.88;;;15.19;81.85
10460;BME280;54412;51.206;6.888;2022-10-16T07:16:23;100757.13;;;15.25;80.99
10460;BME280;54412;51.206;6.888;2022-10-16T07:18:49;100755.47;;;15.10;81.82
10460;BME280;54412;51.206;6.888;2022-10-16T07:21:19;100756.69;;;15.31;80.92
10460;BME280;54412;51.206;6.888;2022-10-16T07:23:53;100759.28;;;15.45;80.32
10460;BME280;54412;51.206;6.888;2022-10-16T07:26:19;100759.41;;;15.17;81.49
10460;BME280;54412;51.206;6.888;2022-10-16T07:28:45;100763.03;;;15.43;80.58
10460;BME280;54412;51.206;6.888;2022-10-16T07:31:13;100772.50;;;15.20;81.61
10460;BME280;54412;51.206;6.888;2022-10-16T07:33:42;100765.78;;;15.41;80.71
10460;BME280;54412;51.206;6.888;2022-10-16T07:36:11;100781.75;;;15.27;81.38
10460;BME280;54412;51.206;6.888;2022-10-16T07:38:37;100777.91;;;15.19;82.12
10460;BME280;54412;51.206;6.888;2022-10-16T07:41:06;100790.06;;;15.35;80.99
10460;BME280;54412;51.206;6.888;2022-10-16T07:43:33;100791.34;;;15.30;81.64
10460;BME280;54412;51.206;6.888;2022-10-16T07:45:59;100789.28;;;15.47;80.64
10460;BME280;54412;51.206;6.888;2022-10-16T07:48:29;100800.91;;;15.32;81.25
10460;BME280;54412;51.206;6.888;2022-10-16T07:51:04;100800.16;;;15.69;79.70
10460;BME280;54412;51.206;6.888;2022-10-16T07:53:31;100802.28;;;16.27;78.54
10460;BME280;54412;51.206;6.888;2022-10-16T07:56:02;100808.84;;;16.72;76.27
10460;BME280;54412;51.206;6.888;2022-10-16T07:58:28;100809.78;;;16.84;75.15
10460;BME280;54412;51.206;6.888;2022-10-16T08:00:55;100815.69;;;17.00;74.43
10460;BME280;54412;51.206;6.888;2022-10-16T08:03:22;100819.00;;;17.38;72.97
10460;BME280;54412;51.206;6.888;2022-10-16T08:05:48;100833.09;;;17.74;71.15
10460;BME280;54412;51.206;6.888;2022-10-16T08:08:15;100831.28;;;17.75;70.46
10460;BME280;54412;51.206;6.888;2022-10-16T08:10:42;100831.91;;;17.79;70.21
10460;BME280;54412;51.206;6.888;2022-10-16T08:13:07;100832.88;;;17.89;70.41
10460;BME280;54412;51.206;6.888;2022-10-16T08:15:33;100842.53;;;18.24;68.75
10460;BME280;54412;51.206;6.888;2022-10-16T08:18:03;100835.25;;;18.04;68.54
10460;BME280;54412;51.206;6.888;2022-10-16T08:20:31;100851.25;;;18.04;68.85
10460;BME280;54412;51.206;6.888;2022-10-16T08:22:57;100845.03;;;17.93;69.28
10460;BME280;54412;51.206;6.888;2022-10-16T08:25:24;100850.69;;;18.34;68.83
10460;BME280;54412;51.206;6.888;2022-10-16T08:27:50;100853.00;;;18.60;66.78
10460;BME280;54412;51.206;6.888;2022-10-16T08:30:19;100859.22;;;18.50;67.56
10460;BME280;54412;51.206;6.888;2022-10-16T08:32:45;100861.72;;;18.18;67.80
10460;BME280;54412;51.206;6.888;2022-10-16T08:35:13;100864.28;;;18.86;66.92
10460;BME280;54412;51.206;6.888;2022-10-16T08:37:40;100860.16;;;18.93;66.00
10460;BME280;54412;51.206;6.888;2022-10-16T08:40:26;100873.91;;;18.66;65.81
10460;BME280;54412;51.206;6.888;2022-10-16T08:46:34;100878.59;;;19.07;64.72
10460;BME280;54412;51.206;6.888;2022-10-16T08:49:11;100889.91;;;19.00;64.18
10460;BME280;54412;51.206;6.888;2022-10-16T08:51:39;100883.72;;;19.10;64.05
10460;BME280;54412;51.206;6.888;2022-10-16T08:54:32;100893.81;;;19.07;64.33
10460;BME280;54412;51.206;6.888;2022-10-16T08:57:18;100895.16;;;18.90;64.39
10460;BME280;54412;51.206;6.888;2022-10-16T08:59:45;100890.59;;;19.35;63.14
10460;BME280;54412;51.206;6.888;2022-10-16T09:02:37;100889.44;;;19.48;62.28
10460;BME280;54412;51.206;6.888;2022-10-16T09:06:02;100892.59;;;19.85;62.05
10460;BME280;54412;51.206;6.888;2022-10-16T09:08:46;100898.03;;;19.63;61.54
10460;BME280;54412;51.206;6.888;2022-10-16T09:17:00;100903.38;;;20.15;59.73
10460;BME280;54412;51.206;6.888;2022-10-16T09:19:46;100911.00;;;19.99;59.66
10460;BME280;54412;51.206;6.888;2022-10-16T09:22:17;100913.69;;;20.31;58.34
10460;BME280;54412;51.206;6.888;2022-10-16T09:24:43;100917.75;;;20.55;57.84
10460;BME280;54412;51.206;6.888;2022-10-16T09:27:14;100914.50;;;20.52;58.01
10460;BME280;54412;51.206;6.888;2022-10-16T09:29:40;100915.78;;;20.57;57.79
10460;BME280;54412;51.206;6.888;2022-10-16T09:32:14;100924.94;;;20.55;57.14
10460;BME280;54412;51.206;6.888;2022-10-16T09:34:49;100921.81;;;21.10;57.61
10460;BME280;54412;51.206;6.888;2022-10-16T09:37:20;100930.69;;;21.69;56.94
10460;BME280;54412;51.206;6.888;2022-10-16T09:39:50;100916.84;;;21.55;54.59
10460;BME280;54412;51.206;6.888;2022-10-16T09:42:20;100919.78;;;21.52;54.95
10460;BME280;54412;51.206;6.888;2022-10-16T09:44:49;100925.66;;;21.86;55.30
10460;BME280;54412;51.206;6.888;2022-10-16T09:47:28;100929.34;;;22.04;53.76
10460;BME280;54412;51.206;6.888;2022-10-16T09:50:00;100924.72;;;21.47;53.36
10460;BME280;54412;51.206;6.888;2022-10-16T09:52:29;100925.69;;;21.27;52.65
10460;BME280;54412;51.206;6.888;2022-10-16T09:55:02;100937.94;;;21.20;52.20
10460;BME280;54412;51.206;6.888;2022-10-16T09:57:28;100935.97;;;21.22;51.71
10460;BME280;54412;51.206;6.888;2022-10-16T09:59:58;100932.81;;;21.66;50.59
10460;BME280;54412;51.206;6.888;2022-10-16T10:02:35;100923.31;;;21.33;51.92
10460;BME280;54412;51.206;6.888;2022-10-16T10:05:04;100925.56;;;20.98;53.04
10460;BME280;54412;51.206;6.888;2022-10-16T10:07:35;100932.50;;;20.70;53.15
10460;BME280;54412;51.206;6.888;2022-10-16T10:10:06;100934.28;;;20.91;54.25
10460;BME280;54412;51.206;6.888;2022-10-16T10:12:44;100936.09;;;21.79;52.38
10460;BME280;54412;51.206;6.888;2022-10-16T10:15:11;100933.81;;;21.74;51.74
10460;BME280;54412;51.206;6.888;2022-10-16T10:17:48;100927.34;;;21.96;51.68
10460;BME280;54412;51.206;6.888;2022-10-16T10:20:26;100929.50;;;21.34;52.42
10460;BME280;54412;51.206;6.888;2022-10-16T10:22:54;100933.22;;;21.52;52.67
10460;BME280;54412;51.206;6.888;2022-10-16T10:25:44;100938.38;;;21.25;52.97
10460;BME280;54412;51.206;6.888;2022-10-16T10:28:37;100941.31;;;21.12;52.40
10460;BME280;54412;51.206;6.888;2022-10-16T10:31:22;100939.16;;;20.25;53.93
10460;BME280;54412;51.206;6.888;2022-10-16T10:34:35;100929.47;;;20.34;55.35
10460;BME280;54412;51.206;6.888;2022-10-16T10:37:23;100931.94;;;20.05;55.08
10460;BME280;54412;51.206;6.888;2022-10-16T10:43:01;100936.19;;;21.49;53.04
10460;BME280;54412;51.206;6.888;2022-10-16T10:46:00;100938.63;;;21.03;52.96
10460;BME280;54412;51.206;6.888;2022-10-16T10:48:58;100937.09;;;21.10;53.40
10460;BME280;54412;51.206;6.888;2022-10-16T10:51:43;100933.47;;;21.39;51.64
10460;BME280;54412;51.206;6.888;2022-10-16T10:54:30;100940.75;;;22.15;50.56
10460;BME280;54412;51.206;6.888;2022-10-16T10:57:10;100933.81;;;22.13;50.56
10460;BME280;54412;51.206;6.888;2022-10-16T11:05:28;100950.09;;;21.92;50.73
10460;BME280;54412;51.206;6.888;2022-10-16T11:08:24;100948.88;;;21.47;51.61
10460;BME280;54412;51.206;6.888;2022-10-16T11:11:04;100950.47;;;21.68;52.21
10460;BME280;54412;51.206;6.888;2022-10-16T11:13:56;100957.00;;;22.33;51.74
10460;BME280;54412;51.206;6.888;2022-10-16T11:16:37;100958.41;;;22.37;50.78
10460;BME280;54412;51.206;6.888;2022-10-16T11:19:27;100955.28;;;22.60;48.88
10460;BME280;54412;51.206;6.888;2022-10-16T11:22:06;100952.34;;;22.91;49.65
10460;BME280;54412;51.206;6.888;2022-10-16T11:24:53;100957.34;;;23.49;48.02
10460;BME280;54412;51.206;6.888;2022-10-16T11:27:37;100958.75;;;23.17;47.59
10460;BME280;54412;51.206;6.888;2022-10-16T11:30:18;100957.78;;;23.08;46.75
10460;BME280;54412;51.206;6.888;2022-10-16T11:33:16;100955.66;;;23.39;46.01
10460;BME280;54412;51.206;6.888;2022-10-16T11:36:11;100954.63;;;22.86;47.62
10460;BME280;54412;51.206;6.888;2022-10-16T11:39:00;100950.66;;;22.15;49.15
10460;BME280;54412;51.206;6.888;2022-10-16T11:41:50;100956.41;;;21.72;49.78
10460;BME280;54412;51.206;6.888;2022-10-16T11:44:59;100961.06;;;21.70;50.22
10460;BME280;54412;51.206;6.888;2022-10-16T11:47:48;100958.13;;;22.59;49.75
10460;BME280;54412;51.206;6.888;2022-10-16T11:50:40;100964.91;;;22.63;48.54
10460;BME280;54412;51.206;6.888;2022-10-16T11:53:21;100971.84;;;23.02;48.41
10460;BME280;54412;51.206;6.888;2022-10-16T11:55:49;100959.09;;;23.04;47.83
10460;BME280;54412;51.206;6.888;2022-10-16T11:58:53;100974.97;;;22.61;46.61
10460;BME280;54412;51.206;6.888;2022-10-16T12:01:44;100959.47;;;23.19;47.20
10460;BME280;54412;51.206;6.888;2022-10-16T12:04:39;100965.69;;;23.46;46.52
10460;BME280;54412;51.206;6.888;2022-10-16T12:07:19;100954.13;;;23.99;45.89
10460;BME280;54412;51.206;6.888;2022-10-16T12:09:47;100965.75;;;23.99;44.96
10460;BME280;54412;51.206;6.888;2022-10-16T12:15:22;100959.28;;;24.70;44.13
10460;BME280;54412;51.206;6.888;2022-10-16T12:17:48;100969.56;;;24.49;43.42
10460;BME280;54412;51.206;6.888;2022-10-16T12:22:54;100970.03;;;24.45;43.28
10460;BME280;54412;51.206;6.888;2022-10-16T12:25:33;100968.31;;;24.18;44.38
10460;BME280;54412;51.206;6.888;2022-10-16T12:28:02;100955.66;;;24.62;43.13
10460;BME280;54412;51.206;6.888;2022-10-16T12:30:34;100963.63;;;24.03;43.22
10460;BME280;54412;51.206;6.888;2022-10-16T12:33:15;100977.13;;;23.93;43.87
10460;BME280;54412;51.206;6.888;2022-10-16T12:35:45;100965.97;;;24.41;42.91
10460;BME280;54412;51.206;6.888;2022-10-16T12:38:28;100968.72;;;23.78;43.33
10460;BME280;54412;51.206;6.888;2022-10-16T12:43:34;100959.19;;;24.37;43.53
10460;BME280;54412;51.206;6.888;2022-10-16T12:48:47;100967.34;;;23.30;45.32
10460;BME280;54412;51.206;6.888;2022-10-16T12:51:36;100965.25;;;23.51;45.24
10460;BME280;54412;51.206;6.888;2022-10-16T12:54:04;100964.47;;;23.04;45.38
10460;BME280;54412;51.206;6.888;2022-10-16T12:56:51;100966.56;;;22.73;44.91
10460;BME280;54412;51.206;6.888;2022-10-16T13:08:29;100968.34;;;21.89;48.35
10460;BME280;54412;51.206;6.888;2022-10-16T13:11:28;100964.38;;;21.93;49.29
10460;BME280;54412;51.206;6.888;2022-10-16T13:20:20;100963.19;;;23.80;45.54
10460;BME280;54412;51.206;6.888;2022-10-16T13:26:05;100964.59;;;24.02;44.65
10460;BME280;54412;51.206;6.888;2022-10-16T13:28:37;100979.34;;;23.80;44.54
10460;BME280;54412;51.206;6.888;2022-10-16T13:31:04;100981.38;;;23.96;44.04
10460;BME280;54412;51.206;6.888;2022-10-16T13:33:35;100978.09;;;24.19;44.07
10460;BME280;54412;51.206;6.888;2022-10-16T13:36:03;100970.75;;;24.29;42.66
10460;BME280;54412;51.206;6.888;2022-10-16T13:38:35;100961.91;;;24.02;44.05
10460;BME280;54412;51.206;6.888;2022-10-16T13:43:36;100974.19;;;24.14;43.09
10460;BME280;54412;51.206;6.888;2022-10-16T13:46:07;100965.81;;;24.42;43.17
10460;BME280;54412;51.206;6.888;2022-10-16T13:48:37;100952.31;;;24.86;44.00
10460;BME280;54412;51.206;6.888;2022-10-16T13:53:37;100969.06;;;24.11;43.44
10460;BME280;54412;51.206;6.888;2022-10-16T13:56:09;100964.19;;;23.97;43.99
10460;BME280;54412;51.206;6.888;2022-10-16T13:58:35;100959.59;;;24.24;43.95
10460;BME280;54412;51.206;6.888;2022-10-16T14:01:16;100967.38;;;24.27;43.95
10460;BME280;54412;51.206;6.888;2022-10-16T14:03:43;100969.66;;;23.69;44.47
10460;BME280;54412;51.206;6.888;2022-10-16T14:06:22;100977.84;;;22.87;45.85
10460;BME280;54412;51.206;6.888;2022-10-16T14:11:55;100981.22;;;22.23;47.45
10460;BME280;54412;51.206;6.888;2022-10-16T14:14:22;100979.91;;;21.99;48.73
10460;BME280;54412;51.206;6.888;2022-10-16T14:16:49;100988.22;;;21.76;48.85
10460;BME280;54412;51.206;6.888;2022-10-16T14:19:22;100983.66;;;21.58;50.22
10460;BME280;54412;51.206;6.888;2022-10-16T14:21:51;100994.53;;;21.56;50.34
10460;BME280;54412;51.206;6.888;2022-10-16T14:24:31;100978.84;;;21.52;51.63
10460;BME280;54412;51.206;6.888;2022-10-16T14:26:58;100969.06;;;21.41;51.62